sensor_id;sensor_type;location;lat;lon;timestamp;temperature;humidity
24682;DHT22;12802;53.390;-2.328;2022-09-16T00:00:35;12.50;99.90
24682;DHT22;12802;53.390;-2.328;2022-09-16T00:03:02;12.50;99.90
24682;DHT22;12802;53.390;-2.328;2022-09-16T00:05:28;12.50;99.90
24682;DHT22;12802;53.390;-2.328;2022-09-16T00:07:55;12.50;99.90
24682;DHT22;12802;53.390;-2.328;2022-09-16T00:10:22;12.50;99.90
24682;DHT22;12802;53.390;-2.328;2022-09-16T00:12:48;12.40;99.90
24682;DHT22;12802;53.390;-2.328;2022-09-16T00:15:15;12.40;99.90
24682;DHT22;12802;53.390;-2.328;2022-09-16T00:17:40;12.40;99.90
24682;DHT22;12802;53.390;-2.328;2022-09-16T00:20:07;12.40;99.90
24682;DHT22;12802;53.390;-2.328;2022-09-16T00:22:33;12.30;99.90
24682;DHT22;12802;53.390;-2.328;2022-09-16T00:24:59;12.30;99.90
24682;DHT22;12802;53.390;-2.328;2022-09-16T00:27:25;12.30;99.90
24682;DHT22;12802;53.390;-2.328;2022-09-16T00:29:50;12.20;99.90
24682;DHT22;12802;53.390;-2.328;2022-09-16T00:32:16;12.30;99.90
24682;DHT22;12802;53.390;-2.328;2022-09-16T00:34:42;12.20;99.90
24682;DHT22;12802;53.390;-2.328;2022-09-16T00:37:08;12.20;99.90
24682;DHT22;12802;53.390;-2.328;2022-09-16T00:39:35;12.10;99.90
24682;DHT22;12802;53.390;-2.328;2022-09-16T00:42:02;12.00;99.90
24682;DHT22;12802;53.390;-2.328;2022-09-16T00:44:55;11.90;99.90
24682;DHT22;12802;53.390;-2.328;2022-09-16T00:50:03;11.80;99.90
24682;DHT22;12802;53.390;-2.328;2022-09-16T00:52:31;11.70;99.90
24682;DHT22;12802;53.390;-2.328;2022-09-16T00:55:01;11.60;99.90
24682;DHT22;12802;53.390;-2.328;2022-09-16T00:57:29;11.50;99.90
24682;DHT22;12802;53.390;-2.328;2022-09-16T00:59:56;11.50;99.90
24682;DHT22;12802;53.390;-2.328;2022-09-16T01:02:23;11.50;99.90
24682;DHT22;12802;53.390;-2.328;2022-09-16T01:05:10;11.50;99.90
24682;DHT22;12802;53.390;-2.328;2022-09-16T01:07:43;11.40;99.90
24682;DHT22;12802;53.390;-2.328;2022-09-16T01:10:10;11.40;99.90
24682;DHT22;12802;53.390;-2.328;2022-09-16T01:12:38;11.30;99.90
24682;DHT22;12802;53.390;-2.328;2022-09-16T01:15:05;11.20;99.90
24682;DHT22;12802;53.390;-2.328;2022-09-16T01:21:02;11.00;99.90
24682;DHT22;12802;53.390;-2.328;2022-09-16T01:32:53;10.40;99.90
24682;DHT22;12802;53.390;-2.328;2022-09-16T01:41:24;10.30;99.90
24682;DHT22;12802;53.390;-2.328;2022-09-16T01:46:58;10.50;99.90
24682;DHT22;12802;53.390;-2.328;2022-09-16T01:49:42;10.50;99.90
24682;DHT22;12802;53.390;-2.328;2022-09-16T01:54:56;10.50;99.90
24682;DHT22;12802;53.390;-2.328;2022-09-16T01:58:00;10.50;99.90
24682;DHT22;12802;53.390;-2.328;2022-09-16T02:00:28;10.40;99.90
24682;DHT22;12802;53.390;-2.328;2022-09-16T02:03:08;10.40;99.90
24682;DHT22;12802;53.390;-2.328;2022-09-16T02:05:39;10.40;99.90
24682;DHT22;12802;53.390;-2.328;2022-09-16T02:08:13;10.40;99.90
24682;DHT22;12802;53.390;-2.328;2022-09-16T02:10:44;10.50;99.90
24682;DHT22;12802;53.390;-2.328;2022-09-16T02:19:07;10.60;99.90
24682;DHT22;12802;53.390;-2.328;2022-09-16T02:21:38;10.70;99.90
24682;DHT22;12802;53.390;-2.328;2022-09-16T02:24:08;10.70;99.90
24682;DHT22;12802;53.390;-2.328;2022-09-16T02:26:39;10.80;99.90
24682;DHT22;12802;53.390;-2.328;2022-09-16T02:29:12;10.80;99.90
24682;DHT22;12802;53.390;-2.328;2022-09-16T02:31:41;10.80;99.90
24682;DHT22;12802;53.390;-2.328;2022-09-16T02:34:17;10.70;99.90
24682;DHT22;12802;53.390;-2.328;2022-09-16T02:36:48;10.50;99.90
24682;DHT22;12802;53.390;-2.328;2022-09-16T02:39:21;10.20;99.90
24682;DHT22;12802;53.390;-2.328;2022-09-16T02:41:49;10.20;99.90
24682;DHT22;12802;53.390;-2.328;2022-09-16T02:44:15;10.30;99.90
24682;DHT22;12802;53.390;-2.328;2022-09-16T02:47:01;10.30;99.90
24682;DHT22;12802;53.390;-2.328;2022-09-16T02:57:40;10.30;99.90
24682;DHT22;12802;53.390;-2.328;2022-09-16T03:00:07;10.40;99.90
24682;DHT22;12802;53.390;-2.328;2022-09-16T03:02:34;10.30;99.90
24682;DHT22;12802;53.390;-2.328;2022-09-16T03:05:00;10.30;99.90
24682;DHT22;12802;53.390;-2.328;2022-09-16T03:07:26;10.20;99.90
24682;DHT22;12802;53.390;-2.328;2022-09-16T03:09:52;10.20;99.90
24682;DHT22;12802;53.390;-2.328;2022-09-16T03:15:30;10.20;99.90
24682;DHT22;12802;53.390;-2.328;2022-09-16T03:18:25;10.10;99.90
24682;DHT22;12802;53.390;-2.328;2022-09-16T03:24:00;10.10;99.90
24682;DHT22;12802;53.390;-2.328;2022-09-16T03:34:07;10.10;99.90
24682;DHT22;12802;53.390;-2.328;2022-09-16T03:36:38;10.00;99.90
24682;DHT22;12802;53.390;-2.328;2022-09-16T03:39:05;10.00;99.90
24682;DHT22;12802;53.390;-2.328;2022-09-16T03:41:32;10.00;99.90
24682;DHT22;12802;53.390;-2.328;2022-09-16T03:43:59;9.90;99.90
24682;DHT22;12802;53.390;-2.328;2022-09-16T03:46:26;9.90;99.90
24682;DHT22;12802;53.390;-2.328;2022-09-16T03:48:54;9.90;99.90
24682;DHT22;12802;53.390;-2.328;2022-09-16T03:51:21;9.90;99.90
24682;DHT22;12802;53.390;-2.328;2022-09-16T03:53:47;9.90;99.90
24682;DHT22;12802;53.390;-2.328;2022-09-16T03:56:12;9.80;99.90
24682;DHT22;12802;53.390;-2.328;2022-09-16T03:58:38;9.80;99.90
24682;DHT22;12802;53.390;-2.328;2022-09-16T04:01:04;9.80;99.90
24682;DHT22;12802;53.390;-2.328;2022-09-16T04:03:30;9.80;99.90
24682;DHT22;12802;53.390;-2.328;2022-09-16T04:05:56;9.70;99.90
24682;DHT22;12802;53.390;-2.328;2022-09-16T04:08:22;9.60;99.90
24682;DHT22;12802;53.390;-2.328;2022-09-16T04:10:56;9.50;99.90
24682;DHT22;12802;53.390;-2.328;2022-09-16T04:13:22;9.40;99.90
24682;DHT22;12802;53.390;-2.328;2022-09-16T04:15:49;9.40;99.90
24682;DHT22;12802;53.390;-2.328;2022-09-16T04:18:15;9.40;99.90
24682;DHT22;12802;53.390;-2.328;2022-09-16T04:20:41;9.30;99.90
24682;DHT22;12802;53.390;-2.328;2022-09-16T04:23:07;9.30;99.90
24682;DHT22;12802;53.390;-2.328;2022-09-16T04:25:33;9.40;99.90
24682;DHT22;12802;53.390;-2.328;2022-09-16T04:27:59;9.40;99.90
24682;DHT22;12802;53.390;-2.328;2022-09-16T04:30:25;9.40;99.90
24682;DHT22;12802;53.390;-2.328;2022-09-16T04:32:55;9.50;99.90
24682;DHT22;12802;53.390;-2.328;2022-09-16T04:35:22;9.40;99.90
24682;DHT22;12802;53.390;-2.328;2022-09-16T04:37:48;9.40;99.90
24682;DHT22;12802;53.390;-2.328;2022-09-16T04:40:14;9.40;99.90
24682;DHT22;12802;53.390;-2.328;2022-09-16T04:42:47;9.30;99.90
24682;DHT22;12802;53.390;-2.328;2022-09-16T04:45:13;9.20;99.90
24682;DHT22;12802;53.390;-2.328;2022-09-16T04:47:39;9.20;99.90
24682;DHT22;12802;53.390;-2.328;2022-09-16T04:50:05;9.30;99.90
24682;DHT22;12802;53.390;-2.328;2022-09-16T04:52:31;9.30;99.90
24682;DHT22;12802;53.390;-2.328;2022-09-16T04:54:57;9.40;99.90
24682;DHT22;12802;53.390;-2.328;2022-09-16T04:57:23;9.40;99.90
24682;DHT22;12802;53.390;-2.328;2022-09-16T04:59:48;9.40;99.90
24682;DHT22;12802;53.390;-2.328;2022-09-16T05:02:14;9.40;99.90
24682;DHT22;12802;53.390;-2.328;2022-09-16T05:04:40;9.30;99.90
24682;DHT22;12802;53.390;-2.328;2022-09-16T05:07:06;9.30;99.90
24682;DHT22;12802;53.390;-2.328;2022-09-16T05:09:33;9.20;99.90
24682;DHT22;12802;53.390;-2.328;2022-09-16T05:11:59;9.20;99.90
24682;DHT22;12802;53.390;-2.328;2022-09-16T05:14:26;9.30;99.90
24682;DHT22;12802;53.390;-2.328;2022-09-16T05:16:52;9.30;99.90
24682;DHT22;12802;53.390;-2.328;2022-09-16T05:19:18;9.30;99.90
24682;DHT22;12802;53.390;-2.328;2022-09-16T05:21:44;9.30;99.90
24682;DHT22;12802;53.390;-2.328;2022-09-16T05:24:12;9.40;99.90
24682;DHT22;12802;53.390;-2.328;2022-09-16T05:26:39;9.40;99.90
24682;DHT22;12802;53.390;-2.328;2022-09-16T05:29:10;9.40;99.90
24682;DHT22;12802;53.390;-2.328;2022-09-16T05:31:38;9.40;99.90
24682;DHT22;12802;53.390;-2.328;2022-09-16T05:34:15;9.30;99.90
24682;DHT22;12802;53.390;-2.328;2022-09-16T05:36:42;9.30;99.90
24682;DHT22;12802;53.390;-2.328;2022-09-16T05:39:12;9.30;99.90
24682;DHT22;12802;53.390;-2.328;2022-09-16T05:41:39;9.20;99.90
24682;DHT22;12802;53.390;-2.328;2022-09-16T05:44:05;9.20;99.90
24682;DHT22;12802;53.390;-2.328;2022-09-16T05:46:33;9.20;99.90
24682;DHT22;12802;53.390;-2.328;2022-09-16T05:49:00;9.10;99.90
24682;DHT22;12802;53.390;-2.328;2022-09-16T05:51:26;9.00;99.90
24682;DHT22;12802;53.390;-2.328;2022-09-16T05:53:53;9.00;99.90
24682;DHT22;12802;53.390;-2.328;2022-09-16T05:56:24;9.00;99.90
24682;DHT22;12802;53.390;-2.328;2022-09-16T05:58:51;9.00;99.90
24682;DHT22;12802;53.390;-2.328;2022-09-16T06:01:22;9.00;99.90
24682;DHT22;12802;53.390;-2.328;2022-09-16T06:03:49;9.00;99.90
24682;DHT22;12802;53.390;-2.328;2022-09-16T06:06:25;9.00;99.90
24682;DHT22;12802;53.390;-2.328;2022-09-16T06:08:53;9.00;99.90
24682;DHT22;12802;53.390;-2.328;2022-09-16T06:11:20;8.90;99.90
24682;DHT22;12802;53.390;-2.328;2022-09-16T06:13:46;8.90;99.90
24682;DHT22;12802;53.390;-2.328;2022-09-16T06:16:12;8.90;99.90
24682;DHT22;12802;53.390;-2.328;2022-09-16T06:18:41;8.90;99.90
24682;DHT22;12802;53.390;-2.328;2022-09-16T06:21:10;8.90;99.90
24682;DHT22;12802;53.390;-2.328;2022-09-16T06:23:37;8.90;99.90
24682;DHT22;12802;53.390;-2.328;2022-09-16T06:26:10;8.80;99.90
24682;DHT22;12802;53.390;-2.328;2022-09-16T06:28:36;8.80;99.90
24682;DHT22;12802;53.390;-2.328;2022-09-16T06:31:09;8.70;99.90
24682;DHT22;12802;53.390;-2.328;2022-09-16T06:33:35;8.60;99.90
24682;DHT22;12802;53.390;-2.328;2022-09-16T06:36:05;8.70;99.90
24682;DHT22;12802;53.390;-2.328;2022-09-16T06:38:32;8.70;99.90
24682;DHT22;12802;53.390;-2.328;2022-09-16T06:40:59;8.70;99.90
24682;DHT22;12802;53.390;-2.328;2022-09-16T06:43:26;8.60;99.90
24682;DHT22;12802;53.390;-2.328;2022-09-16T06:45:59;8.70;99.90
24682;DHT22;12802;53.390;-2.328;2022-09-16T06:48:25;8.70;99.90
24682;DHT22;12802;53.390;-2.328;2022-09-16T06:51:04;8.80;99.90
24682;DHT22;12802;53.390;-2.328;2022-09-16T06:53:30;8.80;99.90
24682;DHT22;12802;53.390;-2.328;2022-09-16T06:56:00;8.90;99.90
24682;DHT22;12802;53.390;-2.328;2022-09-16T06:58:27;8.90;99.90
24682;DHT22;12802;53.390;-2.328;2022-09-16T07:00:56;8.90;99.90
24682;DHT22;12802;53.390;-2.328;2022-09-16T07:03:21;8.90;99.90
24682;DHT22;12802;53.390;-2.328;2022-09-16T07:05:58;8.90;99.90
24682;DHT22;12802;53.390;-2.328;2022-09-16T07:08:30;9.00;99.90
24682;DHT22;12802;53.390;-2.328;2022-09-16T07:11:01;9.10;99.90
24682;DHT22;12802;53.390;-2.328;2022-09-16T07:13:27;9.20;99.90
24682;DHT22;12802;53.390;-2.328;2022-09-16T07:15:53;9.30;99.90
24682;DHT22;12802;53.390;-2.328;2022-09-16T07:18:19;9.40;99.90
24682;DHT22;12802;53.390;-2.328;2022-09-16T07:20:45;9.50;99.90
24682;DHT22;12802;53.390;-2.328;2022-09-16T07:23:11;9.60;99.90
24682;DHT22;12802;53.390;-2.328;2022-09-16T07:25:37;9.70;99.90
24682;DHT22;12802;53.390;-2.328;2022-09-16T07:28:03;9.90;99.90
24682;DHT22;12802;53.390;-2.328;2022-09-16T07:30:29;9.90;99.90
24682;DHT22;12802;53.390;-2.328;2022-09-16T07:32:56;10.00;99.90
24682;DHT22;12802;53.390;-2.328;2022-09-16T07:35:22;10.00;99.90
24682;DHT22;12802;53.390;-2.328;2022-09-16T07:37:48;10.10;99.90
24682;DHT22;12802;53.390;-2.328;2022-09-16T07:40:13;10.20;99.90
24682;DHT22;12802;53.390;-2.328;2022-09-16T07:42:39;10.20;99.90
24682;DHT22;12802;53.390;-2.328;2022-09-16T07:45:07;10.30;99.90
24682;DHT22;12802;53.390;-2.328;2022-09-16T07:47:33;10.30;99.90
24682;DHT22;12802;53.390;-2.328;2022-09-16T07:49:59;10.30;99.90
24682;DHT22;12802;53.390;-2.328;2022-09-16T07:52:25;10.40;99.90
24682;DHT22;12802;53.390;-2.328;2022-09-16T07:54:54;10.40;99.90
24682;DHT22;12802;53.390;-2.328;2022-09-16T07:57:21;10.50;99.90
24682;DHT22;12802;53.390;-2.328;2022-09-16T07:59:47;10.60;99.90
24682;DHT22;12802;53.390;-2.328;2022-09-16T08:02:13;10.70;99.90
24682;DHT22;12802;53.390;-2.328;2022-09-16T08:04:39;10.70;99.90
24682;DHT22;12802;53.390;-2.328;2022-09-16T08:07:05;10.80;99.90
24682;DHT22;12802;53.390;-2.328;2022-09-16T08:09:31;10.80;99.90
24682;DHT22;12802;53.390;-2.328;2022-09-16T08:11:57;10.90;99.90
24682;DHT22;12802;53.390;-2.328;2022-09-16T08:14:24;11.00;99.90
24682;DHT22;12802;53.390;-2.328;2022-09-16T08:16:49;11.00;99.90
24682;DHT22;12802;53.390;-2.328;2022-09-16T08:19:16;11.10;99.90
24682;DHT22;12802;53.390;-2.328;2022-09-16T08:21:42;11.20;99.90
24682;DHT22;12802;53.390;-2.328;2022-09-16T08:24:08;11.20;99.90
24682;DHT22;12802;53.390;-2.328;2022-09-16T08:26:34;11.30;99.90
24682;DHT22;12802;53.390;-2.328;2022-09-16T08:29:00;11.40;99.90
24682;DHT22;12802;53.390;-2.328;2022-09-16T08:31:26;11.50;99.90
24682;DHT22;12802;53.390;-2.328;2022-09-16T08:33:52;11.60;99.90
24682;DHT22;12802;53.390;-2.328;2022-09-16T08:36:22;11.70;99.90
24682;DHT22;12802;53.390;-2.328;2022-09-16T08:38:54;11.90;99.90
24682;DHT22;12802;53.390;-2.328;2022-09-16T08:49:58;12.60;99.90
24682;DHT22;12802;53.390;-2.328;2022-09-16T08:52:29;12.90;99.90
24682;DHT22;12802;53.390;-2.328;2022-09-16T08:55:03;13.00;99.90
24682;DHT22;12802;53.390;-2.328;2022-09-16T08:57:37;13.00;99.90
24682;DHT22;12802;53.390;-2.328;2022-09-16T09:00:11;12.80;99.90
24682;DHT22;12802;53.390;-2.328;2022-09-16T09:11:09;13.30;99.90
24682;DHT22;12802;53.390;-2.328;2022-09-16T09:17:24;13.40;99.90
24682;DHT22;12802;53.390;-2.328;2022-09-16T09:25:58;13.80;99.90
24682;DHT22;12802;53.390;-2.328;2022-09-16T09:37:16;13.90;99.90
24682;DHT22;12802;53.390;-2.328;2022-09-16T09:40:08;14.10;99.90
24682;DHT22;12802;53.390;-2.328;2022-09-16T09:42:44;14.20;99.90
24682;DHT22;12802;53.390;-2.328;2022-09-16T09:45:28;14.50;99.90
24682;DHT22;12802;53.390;-2.328;2022-09-16T09:50:48;14.50;99.90
24682;DHT22;12802;53.390;-2.328;2022-09-16T09:53:27;14.50;99.90
24682;DHT22;12802;53.390;-2.328;2022-09-16T09:55:59;14.50;99.90
24682;DHT22;12802;53.390;-2.328;2022-09-16T09:58:35;14.60;99.90
24682;DHT22;12802;53.390;-2.328;2022-09-16T10:01:03;14.80;99.90
24682;DHT22;12802;53.390;-2.328;2022-09-16T10:03:29;14.70;99.90
24682;DHT22;12802;53.390;-2.328;2022-09-16T10:05:55;14.90;99.90
24682;DHT22;12802;53.390;-2.328;2022-09-16T10:10:57;15.60;99.90
24682;DHT22;12802;53.390;-2.328;2022-09-16T10:13:25;16.00;99.90
24682;DHT22;12802;53.390;-2.328;2022-09-16T10:16:08;15.90;99.90
24682;DHT22;12802;53.390;-2.328;2022-09-16T10:18:35;15.90;99.90
24682;DHT22;12802;53.390;-2.328;2022-09-16T10:21:05;15.60;99.90
24682;DHT22;12802;53.390;-2.328;2022-09-16T10:23:33;15.70;99.90
24682;DHT22;12802;53.390;-2.328;2022-09-16T10:26:26;16.10;99.90
24682;DHT22;12802;53.390;-2.328;2022-09-16T10:29:02;16.40;99.90
24682;DHT22;12802;53.390;-2.328;2022-09-16T10:31:38;16.50;99.90
24682;DHT22;12802;53.390;-2.328;2022-09-16T10:34:24;16.70;99.90
24682;DHT22;12802;53.390;-2.328;2022-09-16T10:37:17;16.80;99.90
24682;DHT22;12802;53.390;-2.328;2022-09-16T10:39:50;17.00;99.90
24682;DHT22;12802;53.390;-2.328;2022-09-16T10:42:25;16.80;99.90
24682;DHT22;12802;53.390;-2.328;2022-09-16T10:45:03;16.80;99.90
24682;DHT22;12802;53.390;-2.328;2022-09-16T10:47:33;16.60;99.90
24682;DHT22;12802;53.390;-2.328;2022-09-16T10:50:02;16.20;99.90
24682;DHT22;12802;53.390;-2.328;2022-09-16T10:52:39;16.10;99.90
24682;DHT22;12802;53.390;-2.328;2022-09-16T10:55:32;15.70;99.90
24682;DHT22;12802;53.390;-2.328;2022-09-16T10:58:17;15.80;99.90
24682;DHT22;12802;53.390;-2.328;2022-09-16T11:25:59;15.30;99.90
24682;DHT22;12802;53.390;-2.328;2022-09-16T11:28:37;15.50;99.90
24682;DHT22;12802;53.390;-2.328;2022-09-16T11:34:13;15.70;99.90
24682;DHT22;12802;53.390;-2.328;2022-09-16T11:36:44;16.00;99.90
24682;DHT22;12802;53.390;-2.328;2022-09-16T11:39:52;16.30;99.90
24682;DHT22;12802;53.390;-2.328;2022-09-16T11:50:40;15.00;99.90
24682;DHT22;12802;53.390;-2.328;2022-09-16T11:53:24;15.00;99.90
24682;DHT22;12802;53.390;-2.328;2022-09-16T11:56:18;14.90;99.90
24682;DHT22;12802;53.390;-2.328;2022-09-16T12:01:31;14.80;99.90
24682;DHT22;12802;53.390;-2.328;2022-09-16T12:04:08;15.00;99.90
24682;DHT22;12802;53.390;-2.328;2022-09-16T12:07:13;15.40;99.90
24682;DHT22;12802;53.390;-2.328;2022-09-16T12:12:22;15.80;99.90
24682;DHT22;12802;53.390;-2.328;2022-09-16T12:14:58;15.80;99.90
24682;DHT22;12802;53.390;-2.328;2022-09-16T12:17:28;16.00;99.90
24682;DHT22;12802;53.390;-2.328;2022-09-16T12:22:31;16.30;99.90
24682;DHT22;12802;53.390;-2.328;2022-09-16T12:25:45;16.00;99.90
24682;DHT22;12802;53.390;-2.328;2022-09-16T12:28:19;15.60;99.90
24682;DHT22;12802;53.390;-2.328;2022-09-16T12:30:49;15.50;99.90
24682;DHT22;12802;53.390;-2.328;2022-09-16T12:33:24;15.30;99.90
24682;DHT22;12802;53.390;-2.328;2022-09-16T12:36:10;15.00;99.90
24682;DHT22;12802;53.390;-2.328;2022-09-16T12:38:37;14.90;99.90
24682;DHT22;12802;53.390;-2.328;2022-09-16T12:50:01;15.10;99.90
24682;DHT22;12802;53.390;-2.328;2022-09-16T12:58:11;15.40;99.90
24682;DHT22;12802;53.390;-2.328;2022-09-16T13:00:41;15.60;99.90
24682;DHT22;12802;53.390;-2.328;2022-09-16T13:03:17;15.50;99.90
24682;DHT22;12802;53.390;-2.328;2022-09-16T13:05:45;15.70;99.90
24682;DHT22;12802;53.390;-2.328;2022-09-16T13:08:27;15.80;99.90
24682;DHT22;12802;53.390;-2.328;2022-09-16T13:11:03;16.00;99.90
24682;DHT22;12802;53.390;-2.328;2022-09-16T13:13:33;15.80;99.90
24682;DHT22;12802;53.390;-2.328;2022-09-16T13:16:00;15.90;99.90
24682;DHT22;12802;53.390;-2.328;2022-09-16T13:18:48;15.80;99.90
24682;DHT22;12802;53.390;-2.328;2022-09-16T13:21:38;16.00;99.90
24682;DHT22;12802;53.390;-2.328;2022-09-16T13:24:40;16.00;99.90
24682;DHT22;12802;53.390;-2.328;2022-09-16T13:27:33;15.70;99.90
24682;DHT22;12802;53.390;-2.328;2022-09-16T13:32:56;15.40;99.90
24682;DHT22;12802;53.390;-2.328;2022-09-16T13:35:35;15.50;99.90
24682;DHT22;12802;53.390;-2.328;2022-09-16T13:40:53;15.20;99.90
24682;DHT22;12802;53.390;-2.328;2022-09-16T13:43:36;15.00;99.90
24682;DHT22;12802;53.390;-2.328;2022-09-16T13:46:09;15.30;99.90
24682;DHT22;12802;53.390;-2.328;2022-09-16T13:48:51;15.80;99.90
24682;DHT22;12802;53.390;-2.328;2022-09-16T13:51:20;16.00;99.90
24682;DHT22;12802;53.390;-2.328;2022-09-16T13:53:49;15.90;99.90
24682;DHT22;12802;53.390;-2.328;2022-09-16T14:05:01;15.60;99.90
24682;DHT22;12802;53.390;-2.328;2022-09-16T14:15:18;15.70;99.90
24682;DHT22;12802;53.390;-2.328;2022-09-16T14:17:48;15.60;99.90
24682;DHT22;12802;53.390;-2.328;2022-09-16T14:20:19;15.60;99.90
24682;DHT22;12802;53.390;-2.328;2022-09-16T14:22:45;15.60;99.90
24682;DHT22;12802;53.390;-2.328;2022-09-16T14:27:50;15.60;99.90
24682;DHT22;12802;53.390;-2.328;2022-09-16T14:30:17;15.60;99.90
24682;DHT22;12802;53.390;-2.328;2022-09-16T14:32:45;15.30;99.90
24682;DHT22;12802;53.390;-2.328;2022-09-16T14:35:23;15.30;99.90
24682;DHT22;12802;53.390;-2.328;2022-09-16T14:37:52;15.40;99.90
24682;DHT22;12802;53.390;-2.328;2022-09-16T14:40:22;15.40;99.90
24682;DHT22;12802;53.390;-2.328;2022-09-16T14:43:02;15.40;99.90
24682;DHT22;12802;53.390;-2.328;2022-09-16T14:45:30;15.20;99.90
24682;DHT22;12802;53.390;-2.328;2022-09-16T14:47:59;15.20;99.90
24682;DHT22;12802;53.390;-2.328;2022-09-16T14:50:31;15.40;99.90
24682;DHT22;12802;53.390;-2.328;2022-09-16T14:53:00;15.50;99.90
24682;DHT22;12802;53.390;-2.328;2022-09-16T14:55:28;15.60;99.90
24682;DHT22;12802;53.390;-2.328;2022-09-16T14:57:55;15.90;99.90
24682;DHT22;12802;53.390;-2.328;2022-09-16T15:00:24;15.90;99.90
24682;DHT22;12802;53.390;-2.328;2022-09-16T15:03:14;15.70;99.90
24682;DHT22;12802;53.390;-2.328;2022-09-16T15:05:45;15.50;99.90
24682;DHT22;12802;53.390;-2.328;2022-09-16T15:08:45;15.70;99.90
24682;DHT22;12802;53.390;-2.328;2022-09-16T15:11:15;15.80;99.90
24682;DHT22;12802;53.390;-2.328;2022-09-16T15:13:43;15.50;99.90
24682;DHT22;12802;53.390;-2.328;2022-09-16T15:16:15;15.50;99.90
24682;DHT22;12802;53.390;-2.328;2022-09-16T15:18:56;15.40;99.90
24682;DHT22;12802;53.390;-2.328;2022-09-16T15:21:31;15.30;99.90
24682;DHT22;12802;53.390;-2.328;2022-09-16T15:24:00;15.30;99.90
24682;DHT22;12802;53.390;-2.328;2022-09-16T15:26:37;15.30;99.90
24682;DHT22;12802;53.390;-2.328;2022-09-16T15:29:12;15.20;99.90
24682;DHT22;12802;53.390;-2.328;2022-09-16T15:31:49;15.10;99.90
24682;DHT22;12802;53.390;-2.328;2022-09-16T15:36:53;14.90;99.90
24682;DHT22;12802;53.390;-2.328;2022-09-16T15:39:39;15.10;99.90
24682;DHT22;12802;53.390;-2.328;2022-09-16T15:42:21;15.40;99.90
24682;DHT22;12802;53.390;-2.328;2022-09-16T15:44:57;15.30;99.90
24682;DHT22;12802;53.390;-2.328;2022-09-16T15:47:27;15.10;99.90
24682;DHT22;12802;53.390;-2.328;2022-09-16T15:50:09;15.00;99.90
24682;DHT22;12802;53.390;-2.328;2022-09-16T15:55:28;15.40;99.90
24682;DHT22;12802;53.390;-2.328;2022-09-16T15:58:01;16.00;99.90
24682;DHT22;12802;53.390;-2.328;2022-09-16T16:00:28;16.30;99.90
24682;DHT22;12802;53.390;-2.328;2022-09-16T16:03:16;16.40;99.90
24682;DHT22;12802;53.390;-2.328;2022-09-16T16:05:50;16.40;99.90
24682;DHT22;12802;53.390;-2.328;2022-09-16T16:08:37;16.30;99.90
24682;DHT22;12802;53.390;-2.328;2022-09-16T16:11:13;16.30;99.90
24682;DHT22;12802;53.390;-2.328;2022-09-16T16:13:39;16.30;99.90
24682;DHT22;12802;53.390;-2.328;2022-09-16T16:16:06;16.30;99.90
24682;DHT22;12802;53.390;-2.328;2022-09-16T16:18:34;16.10;99.90
24682;DHT22;12802;53.390;-2.328;2022-09-16T16:21:05;16.00;99.90
24682;DHT22;12802;53.390;-2.328;2022-09-16T16:23:31;16.20;99.90
24682;DHT22;12802;53.390;-2.328;2022-09-16T16:25:58;16.10;99.90
24682;DHT22;12802;53.390;-2.328;2022-09-16T16:28:24;16.10;99.90
24682;DHT22;12802;53.390;-2.328;2022-09-16T16:30:50;16.00;99.90
24682;DHT22;12802;53.390;-2.328;2022-09-16T16:33:15;16.10;99.90
24682;DHT22;12802;53.390;-2.328;2022-09-16T16:35:41;16.00;99.90
24682;DHT22;12802;53.390;-2.328;2022-09-16T16:38:07;15.90;99.90
24682;DHT22;12802;53.390;-2.328;2022-09-16T16:40:33;15.90;99.90
24682;DHT22;12802;53.390;-2.328;2022-09-16T16:42:58;15.80;99.90
24682;DHT22;12802;53.390;-2.328;2022-09-16T16:45:24;15.70;99.90
24682;DHT22;12802;53.390;-2.328;2022-09-16T16:47:50;15.80;99.90
24682;DHT22;12802;53.390;-2.328;2022-09-16T16:50:16;15.70;99.90
24682;DHT22;12802;53.390;-2.328;2022-09-16T16:52:42;15.60;99.90
24682;DHT22;12802;53.390;-2.328;2022-09-16T16:55:08;15.30;99.90
24682;DHT22;12802;53.390;-2.328;2022-09-16T16:57:34;15.20;99.90
24682;DHT22;12802;53.390;-2.328;2022-09-16T16:59:59;15.20;99.90
24682;DHT22;12802;53.390;-2.328;2022-09-16T17:02:25;15.10;99.90
24682;DHT22;12802;53.390;-2.328;2022-09-16T17:04:51;15.00;99.90
24682;DHT22;12802;53.390;-2.328;2022-09-16T17:07:17;14.90;99.90
24682;DHT22;12802;53.390;-2.328;2022-09-16T17:09:43;14.90;99.90
24682;DHT22;12802;53.390;-2.328;2022-09-16T17:12:08;14.90;99.90
24682;DHT22;12802;53.390;-2.328;2022-09-16T17:14:35;14.80;99.90
24682;DHT22;12802;53.390;-2.328;2022-09-16T17:17:01;14.80;99.90
24682;DHT22;12802;53.390;-2.328;2022-09-16T17:19:27;14.70;99.90
24682;DHT22;12802;53.390;-2.328;2022-09-16T17:21:54;14.70;99.90
24682;DHT22;12802;53.390;-2.328;2022-09-16T17:24:21;14.60;99.90
24682;DHT22;12802;53.390;-2.328;2022-09-16T17:26:47;14.60;99.90
24682;DHT22;12802;53.390;-2.328;2022-09-16T17:29:14;14.50;99.90
24682;DHT22;12802;53.390;-2.328;2022-09-16T17:31:40;14.40;99.90
24682;DHT22;12802;53.390;-2.328;2022-09-16T17:34:12;14.40;99.90
24682;DHT22;12802;53.390;-2.328;2022-09-16T17:36:41;14.40;99.90
24682;DHT22;12802;53.390;-2.328;2022-09-16T17:39:16;14.40;99.90
24682;DHT22;12802;53.390;-2.328;2022-09-16T17:41:43;14.30;99.90
24682;DHT22;12802;53.390;-2.328;2022-09-16T17:44:11;14.30;99.90
24682;DHT22;12802;53.390;-2.328;2022-09-16T17:46:38;14.30;99.90
24682;DHT22;12802;53.390;-2.328;2022-09-16T17:49:06;14.30;99.90
24682;DHT22;12802;53.390;-2.328;2022-09-16T17:51:33;14.30;99.90
24682;DHT22;12802;53.390;-2.328;2022-09-16T17:53:59;14.20;99.90
24682;DHT22;12802;53.390;-2.328;2022-09-16T17:56:25;14.20;99.90
24682;DHT22;12802;53.390;-2.328;2022-09-16T17:58:52;14.20;99.90
24682;DHT22;12802;53.390;-2.328;2022-09-16T18:01:23;14.20;99.90
24682;DHT22;12802;53.390;-2.328;2022-09-16T18:03:51;14.10;99.90
24682;DHT22;12802;53.390;-2.328;2022-09-16T18:06:22;14.10;99.90
24682;DHT22;12802;53.390;-2.328;2022-09-16T18:08:49;14.10;99.90
24682;DHT22;12802;53.390;-2.328;2022-09-16T18:11:16;14.10;99.90
24682;DHT22;12802;53.390;-2.328;2022-09-16T18:13:43;14.00;99.90
24682;DHT22;12802;53.390;-2.328;2022-09-16T18:16:12;14.00;99.90
24682;DHT22;12802;53.390;-2.328;2022-09-16T18:18:39;13.90;99.90
24682;DHT22;12802;53.390;-2.328;2022-09-16T18:21:08;13.80;99.90
24682;DHT22;12802;53.390;-2.328;2022-09-16T18:23:34;13.70;99.90
24682;DHT22;12802;53.390;-2.328;2022-09-16T18:26:09;13.70;99.90
24682;DHT22;12802;53.390;-2.328;2022-09-16T18:28:36;13.70;99.90
24682;DHT22;12802;53.390;-2.328;2022-09-16T18:31:08;13.60;99.90
24682;DHT22;12802;53.390;-2.328;2022-09-16T18:33:34;13.40;99.90
24682;DHT22;12802;53.390;-2.328;2022-09-16T18:36:02;13.20;99.90
24682;DHT22;12802;53.390;-2.328;2022-09-16T18:38:29;13.00;99.90
24682;DHT22;12802;53.390;-2.328;2022-09-16T18:43:38;12.80;99.90
24682;DHT22;12802;53.390;-2.328;2022-09-16T18:46:10;12.80;99.90
24682;DHT22;12802;53.390;-2.328;2022-09-16T18:48:36;12.70;99.90